This is the latest recevied weather packets stored in our database for station/object HP3ICC-23. If no packets are shown the sender has not sent any weather packets the latest 10 day(s).
| Time | Temp. | Humidity | Pressure | Rain* | Wind** | Luminosity | Snow |
|---|---|---|---|---|---|---|---|
| 1777588791 | 17.78° C | 81% | 1009 hPa | 1.02 mm | - | - | - |
| 1777587651 | 17.78° C | 77% | 1008 hPa | 3.3 mm | - | - | - |
| 1777587591 | 17.78° C | 77% | 1008 hPa | 3.3 mm | - | - | - |
| 1777586451 | 17.78° C | 78% | 1008 hPa | 0.76 mm | - | - | - |
| 1777586390 | 17.78° C | 78% | 1008 hPa | 0.76 mm | - | - | - |
| 1777585250 | 17.78° C | 77% | 1008 hPa | 0.76 mm | - | - | - |
| 1777585190 | 17.78° C | 77% | 1008 hPa | 0.76 mm | - | - | - |
| 1777584050 | 17.78° C | 75% | 1008 hPa | 0 mm | - | - | - |
| 1777583990 | 17.78° C | 75% | 1008 hPa | 0 mm | - | - | - |
| 1777582849 | 17.78° C | 75% | 1008 hPa | 0.25 mm | - | - | - |
| 1777582789 | 17.78° C | 75% | 1008 hPa | 0.25 mm | - | - | - |
| 1777581649 | 17.78° C | 74% | 1008 hPa | 0 mm | - | - | - |
| 1777581589 | 17.78° C | 74% | 1008 hPa | 0 mm | - | - | - |
| 1777580448 | 16.11° C | 71% | 1009 hPa | 0 mm | - | - | - |
| 1777580388 | 16.11° C | 71% | 1009 hPa | 0 mm | - | - | - |
| 1777579247 | 15.56° C | 71% | 1009 hPa | 0 mm | - | - | - |
| 1777579187 | 15.56° C | 71% | 1009 hPa | 0 mm | - | - | - |
| 1777578047 | 16.11° C | 69% | 1009 hPa | 0 mm | - | - | - |
| 1777577987 | 16.11° C | 69% | 1009 hPa | 0 mm | - | - | - |
| 1777576846 | 17.78° C | 66% | 1009 hPa | 0 mm | - | - | - |
| 1777576786 | 17.78° C | 66% | 1009 hPa | 0 mm | - | - | - |
| 1777575646 | 17.22° C | 66% | 1009 hPa | 0 mm | - | - | - |
| 1777575585 | 17.22° C | 66% | 1009 hPa | 0 mm | - | - | - |
| 1777574445 | 17.22° C | 65% | 1010 hPa | 0 mm | - | - | - |
| 1777574385 | 17.22° C | 65% | 1010 hPa | 0 mm | - | - | - |
* Rain latest hour (hover to see other rain measurements)
** Current wind speed in m/s (hover to see current wind gust speed)